sensor_id;sensor_type;location;lat;lon;timestamp;pressure;altitude;pressure_sealevel;temperature;humidity
5954;BME280;3002;42.642;24.812;2023-02-04T00:00:20;96247.03;;;6.05;58.94
5954;BME280;3002;42.642;24.812;2023-02-04T00:02:46;96225.31;;;5.61;61.19
5954;BME280;3002;42.642;24.812;2023-02-04T00:05:12;96247.72;;;5.80;60.90
5954;BME280;3002;42.642;24.812;2023-02-04T00:07:38;96233.94;;;5.94;61.12
5954;BME280;3002;42.642;24.812;2023-02-04T00:10:05;96239.84;;;6.16;62.04
5954;BME280;3002;42.642;24.812;2023-02-04T00:12:31;96219.72;;;5.52;63.33
5954;BME280;3002;42.642;24.812;2023-02-04T00:14:58;96217.13;;;5.73;64.06
5954;BME280;3002;42.642;24.812;2023-02-04T00:17:23;96210.28;;;5.97;63.65
5954;BME280;3002;42.642;24.812;2023-02-04T00:19:49;96192.66;;;5.71;63.04
5954;BME280;3002;42.642;24.812;2023-02-04T00:22:14;96192.19;;;5.94;63.29
5954;BME280;3002;42.642;24.812;2023-02-04T00:24:40;96174.03;;;5.86;66.63
5954;BME280;3002;42.642;24.812;2023-02-04T00:27:07;96183.44;;;6.19;69.61
5954;BME280;3002;42.642;24.812;2023-02-04T00:29:32;96188.59;;;5.48;75.51
5954;BME280;3002;42.642;24.812;2023-02-04T00:31:58;96190.56;;;5.88;75.40
5954;BME280;3002;42.642;24.812;2023-02-04T00:34:23;96190.88;;;5.19;81.54
5954;BME280;3002;42.642;24.812;2023-02-04T00:36:49;96185.75;;;5.07;83.80
5954;BME280;3002;42.642;24.812;2023-02-04T00:39:14;96134.53;;;4.22;85.92
5954;BME280;3002;42.642;24.812;2023-02-04T00:41:40;96184.84;;;4.12;82.39
5954;BME280;3002;42.642;24.812;2023-02-04T00:44:05;96168.63;;;4.03;83.79
5954;BME280;3002;42.642;24.812;2023-02-04T00:46:31;96159.59;;;4.41;80.41
5954;BME280;3002;42.642;24.812;2023-02-04T00:48:56;96180.13;;;3.87;87.90
5954;BME280;3002;42.642;24.812;2023-02-04T00:51:22;96150.63;;;4.47;84.08
5954;BME280;3002;42.642;24.812;2023-02-04T00:53:47;96177.63;;;4.34;86.13
5954;BME280;3002;42.642;24.812;2023-02-04T00:56:13;96178.19;;;4.41;88.22
5954;BME280;3002;42.642;24.812;2023-02-04T00:58:38;96161.63;;;4.66;85.72
5954;BME280;3002;42.642;24.812;2023-02-04T01:01:04;96168.84;;;4.34;87.58
5954;BME280;3002;42.642;24.812;2023-02-04T01:03:29;96150.38;;;3.80;94.02
5954;BME280;3002;42.642;24.812;2023-02-04T01:05:55;96134.03;;;3.93;92.13
5954;BME280;3002;42.642;24.812;2023-02-04T01:08:20;96163.19;;;4.57;89.08
5954;BME280;3002;42.642;24.812;2023-02-04T01:10:45;96138.66;;;4.97;82.45
5954;BME280;3002;42.642;24.812;2023-02-04T01:13:11;96133.78;;;4.74;83.04
5954;BME280;3002;42.642;24.812;2023-02-04T01:15:36;96129.34;;;4.90;82.54
5954;BME280;3002;42.642;24.812;2023-02-04T01:18:02;96117.56;;;5.43;78.37
5954;BME280;3002;42.642;24.812;2023-02-04T01:20:28;96102.72;;;5.52;76.15
5954;BME280;3002;42.642;24.812;2023-02-04T01:22:53;96111.00;;;5.76;74.20
5954;BME280;3002;42.642;24.812;2023-02-04T01:25:18;96112.06;;;5.90;73.51
5954;BME280;3002;42.642;24.812;2023-02-04T01:27:44;96064.25;;;4.97;77.16
5954;BME280;3002;42.642;24.812;2023-02-04T01:30:11;96101.13;;;5.67;76.19
5954;BME280;3002;42.642;24.812;2023-02-04T01:32:37;96084.91;;;5.78;74.17
5954;BME280;3002;42.642;24.812;2023-02-04T01:35:03;96081.97;;;5.80;74.57
5954;BME280;3002;42.642;24.812;2023-02-04T01:37:28;96071.00;;;5.25;77.78
5954;BME280;3002;42.642;24.812;2023-02-04T01:39:54;96094.47;;;5.59;74.76
5954;BME280;3002;42.642;24.812;2023-02-04T01:42:19;96075.78;;;5.33;74.82
5954;BME280;3002;42.642;24.812;2023-02-04T01:44:45;96098.22;;;5.78;73.31
5954;BME280;3002;42.642;24.812;2023-02-04T01:47:11;96087.81;;;5.67;73.30
5954;BME280;3002;42.642;24.812;2023-02-04T01:49:37;96044.44;;;4.52;78.31
5954;BME280;3002;42.642;24.812;2023-02-04T01:52:02;96065.31;;;4.86;79.75
5954;BME280;3002;42.642;24.812;2023-02-04T01:54:28;96060.44;;;4.68;79.44
5954;BME280;3002;42.642;24.812;2023-02-04T01:56:54;96061.09;;;4.95;77.90
5954;BME280;3002;42.642;24.812;2023-02-04T01:59:20;96067.47;;;4.94;76.64
5954;BME280;3002;42.642;24.812;2023-02-04T02:01:48;96037.47;;;5.14;74.76
5954;BME280;3002;42.642;24.812;2023-02-04T02:04:29;96065.44;;;5.42;71.85
5954;BME280;3002;42.642;24.812;2023-02-04T02:06:58;96058.81;;;5.34;72.70
5954;BME280;3002;42.642;24.812;2023-02-04T02:09:26;96059.69;;;4.77;78.39
5954;BME280;3002;42.642;24.812;2023-02-04T02:11:53;96057.19;;;4.50;82.19
5954;BME280;3002;42.642;24.812;2023-02-04T02:14:18;96019.28;;;4.70;79.33
5954;BME280;3002;42.642;24.812;2023-02-04T02:16:44;96004.78;;;5.08;77.08
5954;BME280;3002;42.642;24.812;2023-02-04T02:19:14;96058.03;;;5.54;74.93
5954;BME280;3002;42.642;24.812;2023-02-04T02:21:49;96049.16;;;4.98;78.47
5954;BME280;3002;42.642;24.812;2023-02-04T02:24:28;96027.69;;;5.30;76.52
5954;BME280;3002;42.642;24.812;2023-02-04T02:26:55;96020.47;;;5.20;76.58
5954;BME280;3002;42.642;24.812;2023-02-04T02:29:21;96034.16;;;4.66;81.53
5954;BME280;3002;42.642;24.812;2023-02-04T02:31:47;96017.25;;;4.98;79.56
5954;BME280;3002;42.642;24.812;2023-02-04T02:34:13;96018.66;;;5.41;77.14
5954;BME280;3002;42.642;24.812;2023-02-04T02:36:38;96011.22;;;5.58;76.62
5954;BME280;3002;42.642;24.812;2023-02-04T02:39:04;96006.41;;;5.55;75.64
5954;BME280;3002;42.642;24.812;2023-02-04T02:41:29;95991.81;;;5.48;76.20
5954;BME280;3002;42.642;24.812;2023-02-04T02:43:55;95992.59;;;5.69;76.41
5954;BME280;3002;42.642;24.812;2023-02-04T02:46:21;95983.53;;;5.80;75.32
5954;BME280;3002;42.642;24.812;2023-02-04T02:48:46;95984.09;;;5.72;75.80
5954;BME280;3002;42.642;24.812;2023-02-04T02:51:12;95988.59;;;5.92;73.97
5954;BME280;3002;42.642;24.812;2023-02-04T02:53:37;95972.09;;;5.69;75.58
5954;BME280;3002;42.642;24.812;2023-02-04T02:56:03;95986.75;;;5.82;76.79
5954;BME280;3002;42.642;24.812;2023-02-04T02:58:32;95971.84;;;5.71;77.76
5954;BME280;3002;42.642;24.812;2023-02-04T03:00:59;95970.50;;;5.83;77.88
5954;BME280;3002;42.642;24.812;2023-02-04T03:03:32;95985.38;;;6.00;76.00
5954;BME280;3002;42.642;24.812;2023-02-04T03:06:06;95969.41;;;5.89;75.61
5954;BME280;3002;42.642;24.812;2023-02-04T03:08:34;95962.25;;;5.70;75.45
5954;BME280;3002;42.642;24.812;2023-02-04T03:11:00;95970.78;;;5.72;75.64
5954;BME280;3002;42.642;24.812;2023-02-04T03:13:26;95956.16;;;5.49;76.64
5954;BME280;3002;42.642;24.812;2023-02-04T03:15:52;95965.72;;;5.55;76.49
5954;BME280;3002;42.642;24.812;2023-02-04T03:18:18;95986.97;;;5.80;76.16
5954;BME280;3002;42.642;24.812;2023-02-04T03:20:45;95962.53;;;5.63;77.02
5954;BME280;3002;42.642;24.812;2023-02-04T03:23:11;95975.03;;;5.37;79.56
5954;BME280;3002;42.642;24.812;2023-02-04T03:25:37;95963.59;;;5.62;77.85
5954;BME280;3002;42.642;24.812;2023-02-04T03:28:03;95950.84;;;5.23;79.50
5954;BME280;3002;42.642;24.812;2023-02-04T03:30:30;95977.16;;;5.45;79.71
5954;BME280;3002;42.642;24.812;2023-02-04T03:32:56;95952.97;;;5.42;80.01
5954;BME280;3002;42.642;24.812;2023-02-04T03:35:21;95963.34;;;5.43;81.70
5954;BME280;3002;42.642;24.812;2023-02-04T03:37:47;95939.16;;;5.19;82.94
5954;BME280;3002;42.642;24.812;2023-02-04T03:40:12;95948.19;;;5.33;83.63
5954;BME280;3002;42.642;24.812;2023-02-04T03:42:38;95955.63;;;5.57;82.46
5954;BME280;3002;42.642;24.812;2023-02-04T03:45:04;95923.22;;;5.29;81.95
5954;BME280;3002;42.642;24.812;2023-02-04T03:47:29;95922.38;;;5.49;81.85
5954;BME280;3002;42.642;24.812;2023-02-04T03:49:55;95921.31;;;5.66;82.62
5954;BME280;3002;42.642;24.812;2023-02-04T03:52:20;95920.25;;;4.95;84.78
5954;BME280;3002;42.642;24.812;2023-02-04T03:54:46;95915.38;;;4.41;93.74
5954;BME280;3002;42.642;24.812;2023-02-04T03:57:12;95912.84;;;5.07;86.64
5954;BME280;3002;42.642;24.812;2023-02-04T03:59:40;95900.59;;;5.27;85.13
5954;BME280;3002;42.642;24.812;2023-02-04T04:02:05;95921.81;;;5.68;85.43
5954;BME280;3002;42.642;24.812;2023-02-04T04:04:31;95897.94;;;5.37;85.05
5954;BME280;3002;42.642;24.812;2023-02-04T04:06:56;95889.97;;;5.06;88.33
5954;BME280;3002;42.642;24.812;2023-02-04T04:09:22;95908.28;;;5.44;87.17
5954;BME280;3002;42.642;24.812;2023-02-04T04:11:47;95877.19;;;5.44;85.63
5954;BME280;3002;42.642;24.812;2023-02-04T04:14:12;95903.22;;;5.57;84.56
5954;BME280;3002;42.642;24.812;2023-02-04T04:16:38;95891.00;;;5.56;83.78
5954;BME280;3002;42.642;24.812;2023-02-04T04:19:03;95887.81;;;5.59;84.86
5954;BME280;3002;42.642;24.812;2023-02-04T04:21:29;95883.06;;;5.21;88.01
5954;BME280;3002;42.642;24.812;2023-02-04T04:23:54;95889.94;;;4.71;94.91
5954;BME280;3002;42.642;24.812;2023-02-04T04:26:20;95884.91;;;5.41;88.99
5954;BME280;3002;42.642;24.812;2023-02-04T04:28:45;95875.09;;;5.21;90.10
5954;BME280;3002;42.642;24.812;2023-02-04T04:31:11;95880.91;;;5.38;89.45
5954;BME280;3002;42.642;24.812;2023-02-04T04:33:37;95905.34;;;5.76;86.28
5954;BME280;3002;42.642;24.812;2023-02-04T04:36:03;95898.16;;;5.71;84.62
5954;BME280;3002;42.642;24.812;2023-02-04T04:38:29;95864.16;;;5.43;84.03
5954;BME280;3002;42.642;24.812;2023-02-04T04:40:54;95891.81;;;5.52;84.75
5954;BME280;3002;42.642;24.812;2023-02-04T04:43:20;95901.84;;;5.80;85.13
5954;BME280;3002;42.642;24.812;2023-02-04T04:45:45;95875.59;;;5.48;85.22
5954;BME280;3002;42.642;24.812;2023-02-04T04:48:11;95915.72;;;5.72;84.04
5954;BME280;3002;42.642;24.812;2023-02-04T04:50:36;95911.47;;;5.61;84.79
5954;BME280;3002;42.642;24.812;2023-02-04T04:53:02;95893.88;;;5.75;84.50
5954;BME280;3002;42.642;24.812;2023-02-04T04:55:27;95887.53;;;5.66;86.95
5954;BME280;3002;42.642;24.812;2023-02-04T04:57:53;95887.25;;;5.68;86.43
5954;BME280;3002;42.642;24.812;2023-02-04T05:00:19;95892.84;;;5.61;86.43
5954;BME280;3002;42.642;24.812;2023-02-04T05:02:45;95896.53;;;5.75;86.60
5954;BME280;3002;42.642;24.812;2023-02-04T05:05:11;95875.53;;;5.74;85.91
5954;BME280;3002;42.642;24.812;2023-02-04T05:07:37;95871.63;;;5.15;91.22
5954;BME280;3002;42.642;24.812;2023-02-04T05:10:04;95859.91;;;4.55;96.16
5954;BME280;3002;42.642;24.812;2023-02-04T05:12:30;95840.28;;;4.56;93.52
5954;BME280;3002;42.642;24.812;2023-02-04T05:14:55;95877.50;;;5.17;89.29
5954;BME280;3002;42.642;24.812;2023-02-04T05:17:21;95848.50;;;5.26;87.17
5954;BME280;3002;42.642;24.812;2023-02-04T05:19:46;95856.47;;;5.31;86.53
5954;BME280;3002;42.642;24.812;2023-02-04T05:22:12;95884.88;;;5.66;85.43
5954;BME280;3002;42.642;24.812;2023-02-04T05:24:37;95865.75;;;5.49;87.90
5954;BME280;3002;42.642;24.812;2023-02-04T05:27:02;95864.16;;;5.48;89.02
5954;BME280;3002;42.642;24.812;2023-02-04T05:29:28;95871.06;;;5.59;87.96
5954;BME280;3002;42.642;24.812;2023-02-04T05:31:53;95883.28;;;5.60;87.67
5954;BME280;3002;42.642;24.812;2023-02-04T05:34:19;95860.44;;;5.54;87.52
5954;BME280;3002;42.642;24.812;2023-02-04T05:36:44;95877.13;;;5.75;87.76
5954;BME280;3002;42.642;24.812;2023-02-04T05:39:10;95892.56;;;5.78;89.08
5954;BME280;3002;42.642;24.812;2023-02-04T05:41:35;95880.91;;;5.58;85.35
5954;BME280;3002;42.642;24.812;2023-02-04T05:44:01;95888.00;;;5.83;84.68
5954;BME280;3002;42.642;24.812;2023-02-04T05:46:26;95882.19;;;5.76;86.11
5954;BME280;3002;42.642;24.812;2023-02-04T05:48:52;95888.00;;;5.88;86.46
5954;BME280;3002;42.642;24.812;2023-02-04T05:51:17;95861.16;;;5.70;86.24
5954;BME280;3002;42.642;24.812;2023-02-04T05:53:43;95866.25;;;5.66;87.05
5954;BME280;3002;42.642;24.812;2023-02-04T05:56:08;95858.78;;;5.63;88.31
5954;BME280;3002;42.642;24.812;2023-02-04T05:58:34;95910.06;;;6.04;87.25
5954;BME280;3002;42.642;24.812;2023-02-04T06:01:00;95894.06;;;6.09;86.65
5954;BME280;3002;42.642;24.812;2023-02-04T06:03:26;95851.44;;;5.09;91.89
5954;BME280;3002;42.642;24.812;2023-02-04T06:05:52;95888.31;;;5.72;91.41
5954;BME280;3002;42.642;24.812;2023-02-04T06:08:18;95865.25;;;5.42;94.65
5954;BME280;3002;42.642;24.812;2023-02-04T06:10:43;95889.66;;;5.64;93.64
5954;BME280;3002;42.642;24.812;2023-02-04T06:13:09;95895.72;;;5.85;94.36
5954;BME280;3002;42.642;24.812;2023-02-04T06:15:34;95871.50;;;5.97;93.89
5954;BME280;3002;42.642;24.812;2023-02-04T06:18:00;95869.06;;;6.05;93.37
5954;BME280;3002;42.642;24.812;2023-02-04T06:20:25;95866.75;;;5.78;94.32
5954;BME280;3002;42.642;24.812;2023-02-04T06:22:51;95893.22;;;6.24;91.16
5954;BME280;3002;42.642;24.812;2023-02-04T06:25:21;95874.38;;;6.10;91.57
5954;BME280;3002;42.642;24.812;2023-02-04T06:27:47;95889.78;;;6.19;92.45
5954;BME280;3002;42.642;24.812;2023-02-04T06:30:13;95888.69;;;6.30;92.22
5954;BME280;3002;42.642;24.812;2023-02-04T06:32:39;95879.28;;;6.42;90.13
5954;BME280;3002;42.642;24.812;2023-02-04T06:35:05;95882.97;;;6.47;87.85
5954;BME280;3002;42.642;24.812;2023-02-04T06:37:31;95862.84;;;6.30;86.86
5954;BME280;3002;42.642;24.812;2023-02-04T06:39:57;95871.66;;;6.26;86.47
5954;BME280;3002;42.642;24.812;2023-02-04T06:42:23;95879.31;;;6.37;86.43
5954;BME280;3002;42.642;24.812;2023-02-04T06:44:50;95897.94;;;5.37;94.28
5954;BME280;3002;42.642;24.812;2023-02-04T06:47:15;95888.91;;;5.13;99.35
5954;BME280;3002;42.642;24.812;2023-02-04T06:49:41;95897.69;;;5.08;100.00
5954;BME280;3002;42.642;24.812;2023-02-04T06:52:06;95866.59;;;5.24;100.00
5954;BME280;3002;42.642;24.812;2023-02-04T06:54:32;95836.81;;;4.55;100.00
5954;BME280;3002;42.642;24.812;2023-02-04T06:56:57;95844.53;;;4.52;100.00
5954;BME280;3002;42.642;24.812;2023-02-04T06:59:34;95857.81;;;4.72;100.00
5954;BME280;3002;42.642;24.812;2023-02-04T07:02:01;95858.09;;;5.06;100.00
5954;BME280;3002;42.642;24.812;2023-02-04T07:04:26;95815.03;;;4.48;100.00
5954;BME280;3002;42.642;24.812;2023-02-04T07:06:52;95881.47;;;5.09;100.00
5954;BME280;3002;42.642;24.812;2023-02-04T07:09:18;95847.72;;;5.25;98.88
5954;BME280;3002;42.642;24.812;2023-02-04T07:11:43;95850.63;;;5.29;95.13
5954;BME280;3002;42.642;24.812;2023-02-04T07:14:12;95861.53;;;4.97;100.00
5954;BME280;3002;42.642;24.812;2023-02-04T07:16:37;95863.69;;;5.00;99.76
5954;BME280;3002;42.642;24.812;2023-02-04T07:19:03;95822.47;;;5.07;97.54
5954;BME280;3002;42.642;24.812;2023-02-04T07:21:29;95875.31;;;5.50;95.07
5954;BME280;3002;42.642;24.812;2023-02-04T07:23:55;95828.28;;;5.40;94.33
5954;BME280;3002;42.642;24.812;2023-02-04T07:26:20;95834.81;;;5.83;91.97
5954;BME280;3002;42.642;24.812;2023-02-04T07:28:46;95882.84;;;6.17;89.76
5954;BME280;3002;42.642;24.812;2023-02-04T07:31:12;95856.31;;;6.52;84.49
5954;BME280;3002;42.642;24.812;2023-02-04T07:33:44;95869.25;;;6.74;85.88
5954;BME280;3002;42.642;24.812;2023-02-04T07:36:09;95831.84;;;5.95;86.11
5954;BME280;3002;42.642;24.812;2023-02-04T07:38:35;95839.91;;;7.90;75.88
5954;BME280;3002;42.642;24.812;2023-02-04T07:41:00;95824.53;;;8.81;68.25
5954;BME280;3002;42.642;24.812;2023-02-04T07:43:26;95828.50;;;9.62;61.87
5954;BME280;3002;42.642;24.812;2023-02-04T07:45:51;95860.75;;;8.30;72.06
5954;BME280;3002;42.642;24.812;2023-02-04T07:48:17;95844.16;;;11.10;59.48
5954;BME280;3002;42.642;24.812;2023-02-04T07:50:42;95865.34;;;11.96;56.27
5954;BME280;3002;42.642;24.812;2023-02-04T07:53:08;95855.84;;;9.59;60.91
5954;BME280;3002;42.642;24.812;2023-02-04T07:55:33;95841.66;;;8.80;69.03
5954;BME280;3002;42.642;24.812;2023-02-04T07:57:59;95851.41;;;9.82;62.81
5954;BME280;3002;42.642;24.812;2023-02-04T08:00:25;95854.25;;;10.68;60.57
5954;BME280;3002;42.642;24.812;2023-02-04T08:02:50;95860.16;;;12.83;55.16
5954;BME280;3002;42.642;24.812;2023-02-04T08:05:16;95872.56;;;13.27;52.09
5954;BME280;3002;42.642;24.812;2023-02-04T08:07:42;95883.44;;;12.79;52.41
5954;BME280;3002;42.642;24.812;2023-02-04T08:10:08;95883.31;;;10.39;59.13
5954;BME280;3002;42.642;24.812;2023-02-04T08:12:34;95853.59;;;8.88;63.84
5954;BME280;3002;42.642;24.812;2023-02-04T08:14:59;95845.88;;;6.94;77.47
5954;BME280;3002;42.642;24.812;2023-02-04T08:17:26;95845.22;;;6.34;91.66
5954;BME280;3002;42.642;24.812;2023-02-04T08:19:51;95827.81;;;7.20;82.19
5954;BME280;3002;42.642;24.812;2023-02-04T08:22:17;95839.47;;;6.61;86.58
5954;BME280;3002;42.642;24.812;2023-02-04T08:24:42;95842.34;;;7.04;87.06
5954;BME280;3002;42.642;24.812;2023-02-04T08:27:08;95826.31;;;7.38;83.55
5954;BME280;3002;42.642;24.812;2023-02-04T08:29:33;95870.16;;;7.56;86.26
5954;BME280;3002;42.642;24.812;2023-02-04T08:31:59;95838.34;;;6.28;94.87
5954;BME280;3002;42.642;24.812;2023-02-04T08:34:24;95815.91;;;5.85;98.27
5954;BME280;3002;42.642;24.812;2023-02-04T08:36:50;95852.50;;;6.68;97.46
5954;BME280;3002;42.642;24.812;2023-02-04T08:39:15;95815.41;;;6.37;98.62
5954;BME280;3002;42.642;24.812;2023-02-04T08:41:40;95807.06;;;5.15;100.00
5954;BME280;3002;42.642;24.812;2023-02-04T08:44:06;95815.63;;;5.97;100.00
5954;BME280;3002;42.642;24.812;2023-02-04T08:46:35;95824.47;;;5.72;100.00
5954;BME280;3002;42.642;24.812;2023-02-04T08:49:08;95786.06;;;5.13;100.00
5954;BME280;3002;42.642;24.812;2023-02-04T08:51:36;95776.94;;;5.40;100.00
5954;BME280;3002;42.642;24.812;2023-02-04T08:54:02;95829.97;;;6.01;100.00
5954;BME280;3002;42.642;24.812;2023-02-04T08:56:28;95854.09;;;6.25;100.00
5954;BME280;3002;42.642;24.812;2023-02-04T08:58:57;95859.16;;;6.21;100.00
5954;BME280;3002;42.642;24.812;2023-02-04T09:01:23;95819.13;;;5.77;100.00
5954;BME280;3002;42.642;24.812;2023-02-04T09:03:52;95862.88;;;6.20;100.00
5954;BME280;3002;42.642;24.812;2023-02-04T09:06:18;95821.00;;;6.36;100.00
5954;BME280;3002;42.642;24.812;2023-02-04T09:08:43;95837.03;;;5.51;100.00
5954;BME280;3002;42.642;24.812;2023-02-04T09:11:09;95807.31;;;5.18;100.00
5954;BME280;3002;42.642;24.812;2023-02-04T09:13:37;95809.75;;;5.89;100.00
5954;BME280;3002;42.642;24.812;2023-02-04T09:16:02;95840.00;;;6.19;100.00
5954;BME280;3002;42.642;24.812;2023-02-04T09:18:28;95855.91;;;6.74;100.00
5954;BME280;3002;42.642;24.812;2023-02-04T09:20:54;95842.59;;;6.74;100.00
5954;BME280;3002;42.642;24.812;2023-02-04T09:23:20;95830.13;;;7.32;99.24
5954;BME280;3002;42.642;24.812;2023-02-04T09:25:47;95816.50;;;7.34;97.77
5954;BME280;3002;42.642;24.812;2023-02-04T09:28:13;95844.78;;;7.83;95.83
5954;BME280;3002;42.642;24.812;2023-02-04T09:30:42;95840.06;;;7.50;97.62
5954;BME280;3002;42.642;24.812;2023-02-04T09:33:09;95844.78;;;7.59;97.93
5954;BME280;3002;42.642;24.812;2023-02-04T09:35:34;95812.31;;;6.59;100.00
5954;BME280;3002;42.642;24.812;2023-02-04T09:38:00;95839.94;;;7.61;100.00
5954;BME280;3002;42.642;24.812;2023-02-04T09:40:32;95787.91;;;7.63;96.56
5954;BME280;3002;42.642;24.812;2023-02-04T09:42:59;95825.66;;;8.18;95.24
5954;BME280;3002;42.642;24.812;2023-02-04T09:45:27;95775.28;;;7.21;99.83
5954;BME280;3002;42.642;24.812;2023-02-04T09:47:55;95818.72;;;7.74;99.93
5954;BME280;3002;42.642;24.812;2023-02-04T09:50:22;95813.09;;;8.19;95.87
5954;BME280;3002;42.642;24.812;2023-02-04T09:52:50;95806.72;;;8.39;96.09
5954;BME280;3002;42.642;24.812;2023-02-04T09:55:18;95772.28;;;8.37;93.97
5954;BME280;3002;42.642;24.812;2023-02-04T09:57:45;95791.81;;;8.14;97.10
5954;BME280;3002;42.642;24.812;2023-02-04T10:00:23;95777.97;;;7.21;100.00
5954;BME280;3002;42.642;24.812;2023-02-04T10:02:49;95745.72;;;7.41;100.00
5954;BME280;3002;42.642;24.812;2023-02-04T10:05:40;95768.91;;;8.08;99.11
5954;BME280;3002;42.642;24.812;2023-02-04T10:08:04;95749.84;;;9.03;96.37
5954;BME280;3002;42.642;24.812;2023-02-04T10:10:30;95716.84;;;8.62;94.23
5954;BME280;3002;42.642;24.812;2023-02-04T10:12:58;95725.84;;;9.95;81.19
5954;BME280;3002;42.642;24.812;2023-02-04T10:15:25;95756.03;;;11.66;72.15
5954;BME280;3002;42.642;24.812;2023-02-04T10:17:54;95735.84;;;10.53;74.35
5954;BME280;3002;42.642;24.812;2023-02-04T10:20:22;95705.78;;;10.64;74.47
5954;BME280;3002;42.642;24.812;2023-02-04T10:22:50;95736.31;;;10.77;74.89
5954;BME280;3002;42.642;24.812;2023-02-04T10:25:19;95731.81;;;8.25;95.01
5954;BME280;3002;42.642;24.812;2023-02-04T10:27:50;95708.25;;;7.94;100.00
5954;BME280;3002;42.642;24.812;2023-02-04T10:30:21;95683.06;;;9.53;83.58
5954;BME280;3002;42.642;24.812;2023-02-04T10:32:48;95718.25;;;9.33;84.63
5954;BME280;3002;42.642;24.812;2023-02-04T10:35:15;95718.56;;;9.18;89.82
5954;BME280;3002;42.642;24.812;2023-02-04T10:37:41;95689.53;;;8.13;91.71
5954;BME280;3002;42.642;24.812;2023-02-04T10:40:34;95700.34;;;8.60;91.32
5954;BME280;3002;42.642;24.812;2023-02-04T10:43:07;95692.34;;;8.73;91.91
5954;BME280;3002;42.642;24.812;2023-02-04T10:45:34;95675.06;;;8.33;95.44
5954;BME280;3002;42.642;24.812;2023-02-04T10:48:00;95662.78;;;9.11;87.36
5954;BME280;3002;42.642;24.812;2023-02-04T10:50:27;95662.34;;;10.54;79.45
5954;BME280;3002;42.642;24.812;2023-02-04T10:52:57;95648.41;;;10.43;76.38
5954;BME280;3002;42.642;24.812;2023-02-04T10:55:49;95661.75;;;10.34;74.93
5954;BME280;3002;42.642;24.812;2023-02-04T10:58:24;95655.75;;;10.82;72.90
5954;BME280;3002;42.642;24.812;2023-02-04T11:00:51;95630.34;;;11.94;68.78
5954;BME280;3002;42.642;24.812;2023-02-04T11:03:27;95599.97;;;11.02;57.61
5954;BME280;3002;42.642;24.812;2023-02-04T11:05:56;95642.97;;;11.85;56.35
5954;BME280;3002;42.642;24.812;2023-02-04T11:08:32;95638.53;;;14.14;54.01
5954;BME280;3002;42.642;24.812;2023-02-04T11:11:00;95602.78;;;14.59;51.12
5954;BME280;3002;42.642;24.812;2023-02-04T11:13:58;95609.97;;;14.34;45.92
5954;BME280;3002;42.642;24.812;2023-02-04T11:16:30;95609.09;;;13.68;44.65
5954;BME280;3002;42.642;24.812;2023-02-04T11:19:03;95599.19;;;12.10;47.41
5954;BME280;3002;42.642;24.812;2023-02-04T11:29:25;95603.56;;;12.96;45.15
5954;BME280;3002;42.642;24.812;2023-02-04T11:37:13;95599.38;;;17.76;36.94
5954;BME280;3002;42.642;24.812;2023-02-04T11:39:41;95582.16;;;15.24;39.70
5954;BME280;3002;42.642;24.812;2023-02-04T11:44:49;95564.94;;;14.14;41.39
5954;BME280;3002;42.642;24.812;2023-02-04T11:47:15;95555.31;;;13.50;45.46
5954;BME280;3002;42.642;24.812;2023-02-04T11:49:41;95589.09;;;14.10;46.99
5954;BME280;3002;42.642;24.812;2023-02-04T11:52:13;95567.38;;;14.73;44.61
5954;BME280;3002;42.642;24.812;2023-02-04T11:54:39;95599.00;;;14.85;45.34
5954;BME280;3002;42.642;24.812;2023-02-04T11:57:04;95577.44;;;13.35;46.96
5954;BME280;3002;42.642;24.812;2023-02-04T11:59:30;95579.56;;;14.46;45.22
5954;BME280;3002;42.642;24.812;2023-02-04T12:02:20;95591.53;;;14.36;43.94
5954;BME280;3002;42.642;24.812;2023-02-04T12:04:55;95580.72;;;13.41;45.88
5954;BME280;3002;42.642;24.812;2023-02-04T12:07:24;95549.28;;;12.47;46.94
5954;BME280;3002;42.642;24.812;2023-02-04T12:09:50;95573.16;;;12.57;46.78
5954;BME280;3002;42.642;24.812;2023-02-04T12:12:27;95563.72;;;12.90;47.20
5954;BME280;3002;42.642;24.812;2023-02-04T12:15:00;95597.25;;;14.56;43.10
5954;BME280;3002;42.642;24.812;2023-02-04T12:17:26;95582.81;;;13.85;41.63
5954;BME280;3002;42.642;24.812;2023-02-04T12:19:51;95553.81;;;13.82;42.94
5954;BME280;3002;42.642;24.812;2023-02-04T12:22:17;95563.50;;;14.16;42.49
5954;BME280;3002;42.642;24.812;2023-02-04T12:24:42;95594.06;;;12.99;43.11
5954;BME280;3002;42.642;24.812;2023-02-04T12:27:09;95549.66;;;12.37;44.48
5954;BME280;3002;42.642;24.812;2023-02-04T12:29:34;95591.81;;;12.63;45.43
5954;BME280;3002;42.642;24.812;2023-02-04T12:32:00;95569.78;;;12.05;46.05
5954;BME280;3002;42.642;24.812;2023-02-04T12:34:25;95560.53;;;12.49;45.18
5954;BME280;3002;42.642;24.812;2023-02-04T12:36:51;95600.63;;;12.80;46.26
5954;BME280;3002;42.642;24.812;2023-02-04T12:39:16;95553.56;;;14.08;43.96
5954;BME280;3002;42.642;24.812;2023-02-04T12:41:42;95558.16;;;14.98;41.79
5954;BME280;3002;42.642;24.812;2023-02-04T12:44:07;95589.88;;;15.50;40.21
5954;BME280;3002;42.642;24.812;2023-02-04T12:46:32;95597.00;;;14.49;41.30
5954;BME280;3002;42.642;24.812;2023-02-04T12:48:58;95594.03;;;14.41;42.23
5954;BME280;3002;42.642;24.812;2023-02-04T12:51:23;95549.50;;;14.02;42.87
5954;BME280;3002;42.642;24.812;2023-02-04T12:53:49;95586.06;;;15.27;42.23
5954;BME280;3002;42.642;24.812;2023-02-04T12:56:15;95577.97;;;15.03;40.72
5954;BME280;3002;42.642;24.812;2023-02-04T12:58:43;95597.44;;;13.97;43.79
5954;BME280;3002;42.642;24.812;2023-02-04T13:01:11;95601.81;;;15.62;40.16
5954;BME280;3002;42.642;24.812;2023-02-04T13:03:37;95588.31;;;14.76;40.96
5954;BME280;3002;42.642;24.812;2023-02-04T13:06:02;95609.75;;;16.35;38.51
5954;BME280;3002;42.642;24.812;2023-02-04T13:08:28;95550.75;;;13.42;43.03
5954;BME280;3002;42.642;24.812;2023-02-04T13:10:53;95578.56;;;13.97;43.12
5954;BME280;3002;42.642;24.812;2023-02-04T13:13:21;95577.91;;;13.58;43.89
5954;BME280;3002;42.642;24.812;2023-02-04T13:15:46;95585.38;;;13.31;44.33
5954;BME280;3002;42.642;24.812;2023-02-04T13:18:12;95615.88;;;13.44;44.86
5954;BME280;3002;42.642;24.812;2023-02-04T13:20:38;95587.25;;;14.68;42.80
5954;BME280;3002;42.642;24.812;2023-02-04T13:23:03;95613.41;;;14.89;41.73
5954;BME280;3002;42.642;24.812;2023-02-04T13:25:29;95618.94;;;13.84;43.54
5954;BME280;3002;42.642;24.812;2023-02-04T13:27:54;95630.09;;;14.58;43.19
5954;BME280;3002;42.642;24.812;2023-02-04T13:30:20;95617.09;;;14.18;42.43